Time;durP1;ratioP1;P1;durP2;ratioP2;P2;SDS_P1;SDS_P2;PMS_P1;PMS_P2;Temp;Humidity;BMP_temperature;BMP_pressure;BME280_temperature;BME280_humidity;BME280_pressure;Samples;Min_cycle;Max_cycle;Signal;HPM_P1;HPM_P2
2020/12/21 00:00:17;;;;;;;5.90;5.40;;;12.00;73.30;;;;;;4872472;29;20463;-75
2020/12/21 00:02:47;;;;;;;4.90;4.40;;;12.00;73.30;;;;;;4866061;29;20549;-75
2020/12/21 00:05:14;;;;;;;5.03;4.63;;;12.00;73.20;;;;;;4863071;29;20515;-75
2020/12/21 00:07:40;;;;;;;5.33;4.93;;;12.00;73.10;;;;;;4879266;29;20555;-75
2020/12/21 00:10:08;;;;;;;5.70;5.20;;;12.00;73.30;;;;;;4877529;29;20468;-76
2020/12/21 00:12:35;;;;;;;5.03;4.70;;;12.00;73.30;;;;;;4876730;29;20453;-75
2020/12/21 00:15:03;;;;;;;5.00;4.63;;;12.00;73.30;;;;;;4879505;29;20548;-76
2020/12/21 00:17:29;;;;;;;4.27;3.97;;;12.00;73.30;;;;;;4861215;29;20958;-76
2020/12/21 00:19:57;;;;;;;4.77;4.37;;;12.00;73.00;;;;;;4869992;29;20468;-76
2020/12/21 00:22:23;;;;;;;3.73;3.30;;;12.00;73.20;;;;;;4866839;29;20456;-75
2020/12/21 00:24:50;;;;;;;4.00;3.70;;;11.90;73.00;;;;;;4860736;29;20551;-75
2020/12/21 00:27:16;;;;;;;4.67;4.27;;;11.90;73.20;;;;;;4861534;29;20552;-75
2020/12/21 00:29:43;;;;;;;4.60;4.20;;;11.90;73.30;;;;;;4874262;29;20533;-75
2020/12/21 00:32:10;;;;;;;4.73;4.30;;;12.00;73.40;;;;;;4875121;29;20468;-75
2020/12/21 00:34:36;;;;;;;5.77;4.47;;;12.00;73.20;;;;;;4877568;29;20810;-75
2020/12/21 00:37:06;;;;;;;4.33;4.03;;;12.00;73.20;;;;;;4877906;29;20472;-75
2020/12/21 00:39:32;;;;;;;4.40;3.93;;;12.00;73.20;;;;;;4876345;29;20847;-76
2020/12/21 00:41:59;;;;;;;4.83;4.37;;;11.90;73.10;;;;;;4861410;29;20954;-75
2020/12/21 00:44:26;;;;;;;4.93;3.43;;;11.90;73.10;;;;;;4862426;29;20962;-75
2020/12/21 00:46:52;;;;;;;3.60;3.23;;;11.90;73.30;;;;;;4873993;29;20973;-76
2020/12/21 00:49:19;;;;;;;3.80;3.50;;;11.80;73.30;;;;;;4863257;29;20595;-76
2020/12/21 00:51:45;;;;;;;3.50;3.20;;;11.80;73.30;;;;;;4867879;29;20465;-75
2020/12/21 00:54:13;;;;;;;3.37;3.07;;;11.80;73.20;;;;;;4873625;29;20476;-76
2020/12/21 00:56:39;;;;;;;3.37;3.10;;;11.70;73.20;;;;;;4860016;29;20469;-76
2020/12/21 00:59:06;;;;;;;3.60;3.30;;;11.70;73.30;;;;;;4865248;29;20472;-75
2020/12/21 01:01:33;;;;;;;3.40;2.20;;;11.70;73.40;;;;;;4868512;29;20463;-75
2020/12/21 01:04:01;;;;;;;3.00;2.60;;;11.60;73.30;;;;;;4877344;29;20468;-75
2020/12/21 01:06:27;;;;;;;3.33;3.13;;;11.60;73.40;;;;;;4876852;29;20460;-75
2020/12/21 01:08:54;;;;;;;3.33;3.00;;;11.60;73.50;;;;;;4874095;29;20549;-75
2020/12/21 01:11:21;;;;;;;2.90;2.70;;;11.60;73.60;;;;;;4860192;29;20518;-75
2020/12/21 01:13:48;;;;;;;3.97;3.77;;;11.60;73.80;;;;;;4860973;29;20548;-76
2020/12/21 01:16:18;;;;;;;3.97;3.70;;;11.70;73.70;;;;;;4862342;29;20460;-76
2020/12/21 01:18:45;;;;;;;3.70;3.40;;;11.80;73.60;;;;;;4875288;29;20972;-76
2020/12/21 01:21:14;;;;;;;4.57;4.20;;;11.80;73.50;;;;;;4878834;29;20464;-75
2020/12/21 01:23:40;;;;;;;3.93;3.63;;;11.80;73.50;;;;;;4862441;29;20465;-76
2020/12/21 01:26:07;;;;;;;6.40;4.63;;;11.80;73.40;;;;;;4862109;29;20957;-76
2020/12/21 01:28:34;;;;;;;3.83;3.53;;;11.80;73.30;;;;;;4872626;29;20502;-75
2020/12/21 01:31:01;;;;;;;4.20;3.30;;;11.80;73.30;;;;;;4876436;29;20460;-76
2020/12/21 01:33:27;;;;;;;2.87;2.50;;;11.80;73.40;;;;;;4868461;29;20925;-76
2020/12/21 01:35:53;;;;;;;4.70;3.50;;;11.80;73.50;;;;;;4862246;29;20565;-75
2020/12/21 01:38:20;;;;;;;3.17;2.60;;;11.80;73.60;;;;;;4861990;29;20465;-75
2020/12/21 01:40:46;;;;;;;3.00;2.70;;;11.70;73.50;;;;;;4876062;29;20452;-75
2020/12/21 01:43:13;;;;;;;3.10;2.63;;;11.70;73.40;;;;;;4881396;29;20460;-74
2020/12/21 01:45:40;;;;;;;4.30;2.80;;;11.70;73.30;;;;;;4870155;29;20547;-75
2020/12/21 01:48:07;;;;;;;4.30;3.03;;;11.60;73.20;;;;;;4865153;29;20500;-75
2020/12/21 01:50:34;;;;;;;3.00;2.80;;;11.60;73.20;;;;;;4876541;29;20456;-76
2020/12/21 01:53:01;;;;;;;3.00;2.80;;;11.50;73.20;;;;;;4880219;29;20499;-75
2020/12/21 01:55:30;;;;;;;3.43;3.13;;;11.40;73.10;;;;;;4869335;29;20457;-75
2020/12/21 01:57:56;;;;;;;3.30;3.00;;;11.30;73.20;;;;;;4867471;29;20467;-75
2020/12/21 02:00:23;;;;;;;2.70;2.50;;;11.30;73.30;;;;;;4879509;29;20834;-75
2020/12/21 02:02:50;;;;;;;3.37;2.80;;;11.20;73.30;;;;;;4875262;29;20455;-75
2020/12/21 02:05:17;;;;;;;4.27;3.87;;;11.10;73.30;;;;;;4864052;29;20551;-75
2020/12/21 02:07:44;;;;;;;4.07;3.67;;;11.10;73.20;;;;;;4864187;29;20558;-75
2020/12/21 02:10:10;;;;;;;4.70;3.97;;;11.00;73.10;;;;;;4866723;29;20890;-75
2020/12/21 02:12:37;;;;;;;4.30;3.90;;;11.00;73.30;;;;;;4866041;29;20515;-75
2020/12/21 02:15:03;;;;;;;4.20;3.80;;;10.90;73.40;;;;;;4880453;29;20487;-75
2020/12/21 02:17:30;;;;;;;5.20;4.20;;;10.90;73.30;;;;;;4879278;29;20506;-76
2020/12/21 02:19:57;;;;;;;5.93;4.37;;;10.80;73.20;;;;;;4878225;29;20464;-76
2020/12/21 02:22:25;;;;;;;4.77;4.27;;;10.80;73.30;;;;;;4881216;29;20960;-76
2020/12/21 02:24:51;;;;;;;5.30;4.60;;;10.80;73.50;;;;;;4865345;29;20906;-76
2020/12/21 02:27:18;;;;;;;4.43;4.03;;;10.70;73.30;;;;;;4863706;29;20463;-76
2020/12/21 02:29:44;;;;;;;3.83;3.47;;;10.70;73.50;;;;;;4870595;29;20466;-75
2020/12/21 02:32:11;;;;;;;4.70;3.43;;;10.70;73.50;;;;;;4881084;29;20466;-76
2020/12/21 02:34:37;;;;;;;3.40;3.00;;;10.70;73.50;;;;;;4873168;29;20553;-76
2020/12/21 02:37:04;;;;;;;4.10;3.60;;;10.70;73.50;;;;;;4879422;29;20482;-76
2020/12/21 02:39:31;;;;;;;3.20;2.90;;;10.70;73.60;;;;;;4880651;29;20467;-76
2020/12/21 02:41:58;;;;;;;3.57;3.27;;;10.70;73.70;;;;;;4879496;29;20477;-76
2020/12/21 02:44:24;;;;;;;3.93;3.63;;;10.70;73.70;;;;;;4876628;29;20468;-75
2020/12/21 02:46:51;;;;;;;4.03;3.30;;;10.80;73.70;;;;;;4862449;29;20543;-76
2020/12/21 02:49:17;;;;;;;5.37;3.03;;;10.80;73.50;;;;;;4873450;29;20503;-76
2020/12/21 02:51:44;;;;;;;4.60;3.37;;;10.70;73.20;;;;;;4874313;29;20555;-76
2020/12/21 02:54:10;;;;;;;3.07;2.77;;;10.70;73.20;;;;;;4878952;29;20843;-76
2020/12/21 02:56:38;;;;;;;4.13;3.30;;;10.70;73.30;;;;;;4874932;29;20470;-76
2020/12/21 02:59:04;;;;;;;3.90;2.80;;;10.60;73.10;;;;;;4862861;29;20466;-75
2020/12/21 03:01:31;;;;;;;3.20;2.90;;;10.60;73.10;;;;;;4873746;29;20455;-76
2020/12/21 03:03:57;;;;;;;10.00;3.20;;;10.60;73.10;;;;;;4861983;29;20454;-76
2020/12/21 03:06:24;;;;;;;3.90;3.13;;;10.50;73.00;;;;;;4875208;29;20502;-75
2020/12/21 03:08:50;;;;;;;4.20;3.17;;;10.50;73.00;;;;;;4880480;29;20561;-75
2020/12/21 03:11:17;;;;;;;4.87;3.13;;;10.40;73.00;;;;;;4878158;29;20467;-76
2020/12/21 03:13:44;;;;;;;4.03;3.00;;;10.40;73.00;;;;;;4878440;29;20498;-75
2020/12/21 03:16:12;;;;;;;3.50;3.20;;;10.40;73.20;;;;;;4868629;29;20472;-75
2020/12/21 03:18:38;;;;;;;4.50;3.53;;;10.40;72.90;;;;;;4861734;29;20501;-76
2020/12/21 03:21:05;;;;;;;3.00;2.80;;;10.30;72.70;;;;;;4875953;29;20456;-76
2020/12/21 03:23:32;;;;;;;4.07;3.47;;;10.30;72.80;;;;;;4878823;29;20459;-74
2020/12/21 03:25:58;;;;;;;2.90;2.70;;;10.30;72.90;;;;;;4871339;29;20489;-76
2020/12/21 03:28:25;;;;;;;3.47;3.17;;;10.20;72.60;;;;;;4881471;29;20498;-76
2020/12/21 03:30:52;;;;;;;6.37;4.37;;;10.20;72.50;;;;;;4878191;29;20462;-76
2020/12/21 03:33:19;;;;;;;4.50;3.73;;;10.10;72.40;;;;;;4866945;29;20882;-76
2020/12/21 03:35:45;;;;;;;3.50;3.20;;;10.10;72.50;;;;;;4867472;29;20473;-76
2020/12/21 03:38:12;;;;;;;3.93;3.60;;;10.10;72.50;;;;;;4864757;29;20483;-76
2020/12/21 03:40:38;;;;;;;3.80;3.40;;;10.00;72.30;;;;;;4861329;29;20467;-78
2020/12/21 03:43:05;;;;;;;4.50;4.20;;;10.00;72.30;;;;;;4873352;29;20546;-76
2020/12/21 03:45:31;;;;;;;3.40;3.10;;;10.00;72.40;;;;;;4874644;29;20508;-76
2020/12/21 03:47:59;;;;;;;3.30;3.07;;;10.00;72.30;;;;;;4867613;29;21050;-76
2020/12/21 03:50:25;;;;;;;3.20;3.00;;;10.00;72.50;;;;;;4875068;29;20853;-76
2020/12/21 03:52:52;;;;;;;4.43;4.03;;;10.00;72.80;;;;;;4870891;29;20491;-76
2020/12/21 03:55:18;;;;;;;4.10;3.70;;;10.00;72.80;;;;;;4864734;29;20458;-80
2020/12/21 03:57:45;;;;;;;4.10;3.63;;;10.00;72.70;;;;;;4877080;29;20468;-76
2020/12/21 04:00:11;;;;;;;3.90;3.40;;;10.00;72.60;;;;;;4869328;29;20468;-76
2020/12/21 04:02:38;;;;;;;6.73;3.73;;;10.00;72.60;;;;;;4875795;29;20823;-76
2020/12/21 04:05:05;;;;;;;3.17;2.97;;;10.00;72.30;;;;;;4868729;29;20549;-77
2020/12/21 04:07:33;;;;;;;3.93;3.63;;;10.00;72.10;;;;;;4862824;29;20487;-76
2020/12/21 04:10:00;;;;;;;3.80;3.37;;;9.90;73.30;;;;;;4877577;29;20458;-76
2020/12/21 04:12:26;;;;;;;3.70;3.40;;;9.90;73.40;;;;;;4868940;29;20462;-75
2020/12/21 04:14:53;;;;;;;4.40;3.37;;;9.90;73.40;;;;;;4865230;29;20462;-76
2020/12/21 04:17:20;;;;;;;4.30;3.90;;;9.80;73.30;;;;;;4872684;29;20463;-77
2020/12/21 04:19:46;;;;;;;5.70;3.43;;;9.80;73.40;;;;;;4876676;29;20507;-75
2020/12/21 04:22:13;;;;;;;4.90;3.87;;;9.80;73.50;;;;;;4862621;29;20468;-76
2020/12/21 04:24:40;;;;;;;3.93;3.50;;;9.80;73.50;;;;;;4883466;29;20471;-76
2020/12/21 04:27:07;;;;;;;3.43;3.13;;;9.80;73.40;;;;;;4880296;29;20971;-76
2020/12/21 04:29:33;;;;;;;3.67;3.27;;;9.80;73.30;;;;;;4871256;29;20502;-75
2020/12/21 04:32:00;;;;;;;5.73;3.60;;;9.80;73.10;;;;;;4876932;29;20879;-76
2020/12/21 04:34:26;;;;;;;6.07;2.80;;;9.80;73.10;;;;;;4874136;29;20472;-76
2020/12/21 04:36:53;;;;;;;3.40;3.10;;;9.90;73.10;;;;;;4875796;29;20461;-76
2020/12/21 04:39:21;;;;;;;3.77;3.47;;;9.90;73.00;;;;;;4873888;29;20483;-76
2020/12/21 04:41:52;;;;;;;2.90;2.70;;;9.90;73.10;;;;;;4866006;29;20476;-76
2020/12/21 04:44:20;;;;;;;4.13;3.73;;;9.90;73.10;;;;;;4868089;29;20558;-77
2020/12/21 04:46:48;;;;;;;6.73;3.80;;;10.00;71.90;;;;;;4864898;29;20461;-76
2020/12/21 04:49:16;;;;;;;4.53;3.27;;;10.00;71.50;;;;;;4875915;29;21079;-75
2020/12/21 04:51:46;;;;;;;3.80;3.50;;;10.00;71.20;;;;;;4873719;29;20957;-76
2020/12/21 04:54:13;;;;;;;3.43;2.97;;;9.90;72.40;;;;;;4878717;29;20464;-77
2020/12/21 04:56:42;;;;;;;3.73;3.43;;;9.90;72.40;;;;;;4878670;29;20462;-76
2020/12/21 04:59:09;;;;;;;4.20;3.20;;;9.80;72.30;;;;;;4875443;29;20461;-76
2020/12/21 05:01:36;;;;;;;2.90;2.70;;;9.80;72.40;;;;;;4861071;29;20507;-75
2020/12/21 05:04:03;;;;;;;3.50;3.20;;;9.80;72.30;;;;;;4864597;29;20461;-76
2020/12/21 05:06:29;;;;;;;3.80;3.50;;;9.80;72.30;;;;;;4871705;29;20455;-76
2020/12/21 05:09:05;;;;;;;3.60;3.00;;;9.90;72.40;;;;;;4872295;29;20667;-76
2020/12/21 05:11:31;;;;;;;5.07;3.73;;;9.90;72.30;;;;;;4868027;29;20493;-75
2020/12/21 05:14:06;;;;;;;7.43;4.77;;;9.90;72.30;;;;;;4875606;29;20493;-76
2020/12/21 05:16:33;;;;;;;4.17;3.33;;;9.90;72.20;;;;;;4879108;29;20455;-76
2020/12/21 05:18:59;;;;;;;5.37;4.00;;;9.90;72.30;;;;;;4878078;29;20488;-75
2020/12/21 05:21:30;;;;;;;4.00;3.40;;;9.90;72.30;;;;;;4879532;29;20480;-76
2020/12/21 05:23:57;;;;;;;4.23;3.87;;;9.90;72.40;;;;;;4866395;29;20493;-76
2020/12/21 05:26:31;;;;;;;5.20;4.20;;;9.90;72.40;;;;;;4874877;29;20459;-77
2020/12/21 05:28:58;;;;;;;5.50;4.30;;;9.90;72.50;;;;;;4874857;29;20492;-75
2020/12/21 05:31:27;;;;;;;6.20;3.93;;;9.90;72.60;;;;;;4878937;29;20461;-76
2020/12/21 05:33:53;;;;;;;4.77;4.27;;;9.90;72.60;;;;;;4877485;29;20466;-77
2020/12/21 05:36:21;;;;;;;5.07;4.57;;;9.90;72.70;;;;;;4873509;29;20501;-77
2020/12/21 05:38:57;;;;;;;8.67;4.73;;;10.00;71.70;;;;;;4864451;29;20472;-76
2020/12/21 05:41:23;;;;;;;4.27;3.90;;;10.10;71.80;;;;;;4868523;29;20957;-77
2020/12/21 05:43:52;;;;;;;4.87;3.93;;;10.10;71.70;;;;;;4871140;29;20456;-76
2020/12/21 05:46:20;;;;;;;5.17;4.10;;;10.20;71.70;;;;;;4867540;29;20458;-76
2020/12/21 05:48:49;;;;;;;5.90;3.60;;;10.20;71.50;;;;;;4872012;29;21064;-76
2020/12/21 05:51:22;;;;;;;6.43;3.83;;;10.30;71.30;;;;;;4875731;29;20460;-77
2020/12/21 05:53:52;;;;;;;3.50;3.30;;;10.30;70.80;;;;;;4874264;29;20981;-77
2020/12/21 05:56:21;;;;;;;7.50;3.80;;;10.30;70.60;;;;;;4876606;29;20945;-75
2020/12/21 05:58:48;;;;;;;4.70;4.30;;;10.30;70.40;;;;;;4879374;29;20450;-77
2020/12/21 06:01:16;;;;;;;4.37;3.97;;;10.30;70.20;;;;;;4875897;29;20458;-77
2020/12/21 06:03:45;;;;;;;4.40;4.00;;;10.30;70.40;;;;;;4877849;29;20462;-77
2020/12/21 06:06:18;;;;;;;5.33;3.80;;;10.30;70.50;;;;;;4875067;29;20460;-77
2020/12/21 06:08:46;;;;;;;6.37;4.53;;;10.20;70.30;;;;;;4881456;29;20487;-76
2020/12/21 06:11:18;;;;;;;4.30;3.90;;;10.20;70.40;;;;;;4880507;29;20475;-75
2020/12/21 06:13:50;;;;;;;4.77;3.67;;;10.10;70.60;;;;;;4872689;29;20878;-75
2020/12/21 06:16:18;;;;;;;4.87;3.67;;;10.10;70.70;;;;;;4868430;29;20829;-76
2020/12/21 06:18:55;;;;;;;4.80;4.40;;;10.10;70.80;;;;;;4866104;29;20517;-76
2020/12/21 06:21:27;;;;;;;5.30;4.80;;;10.20;70.90;;;;;;4865984;29;20457;-77
2020/12/21 06:23:54;;;;;;;5.60;4.60;;;10.20;70.90;;;;;;4865939;29;20537;-78
2020/12/21 06:26:32;;;;;;;5.33;4.70;;;10.20;70.90;;;;;;4871291;29;20457;-77
2020/12/21 06:29:03;;;;;;;5.70;4.63;;;10.20;70.80;;;;;;4877083;29;20553;-77
2020/12/21 06:31:42;;;;;;;4.33;3.77;;;10.20;70.90;;;;;;4867623;29;20473;-77
2020/12/21 06:34:09;;;;;;;7.03;5.33;;;10.20;70.90;;;;;;4877574;29;20461;-76
2020/12/21 06:36:37;;;;;;;4.23;3.83;;;10.10;70.60;;;;;;4877201;29;20957;-77
2020/12/21 06:39:05;;;;;;;5.83;4.77;;;10.10;70.70;;;;;;4875427;29;20597;-77
2020/12/21 06:41:32;;;;;;;5.33;4.83;;;10.10;70.80;;;;;;4880751;29;20486;-77
2020/12/21 06:44:01;;;;;;;5.77;5.17;;;10.10;70.70;;;;;;4871709;29;20461;-79
2020/12/21 06:46:28;;;;;;;5.87;5.27;;;10.10;70.70;;;;;;4871032;29;20464;-79
2020/12/21 06:49:06;;;;;;;4.90;4.50;;;10.00;70.20;;;;;;4866201;29;20492;-77
2020/12/21 06:51:33;;;;;;;6.57;5.70;;;9.90;71.70;;;;;;4872335;29;20556;-78
2020/12/21 06:54:03;;;;;;;4.73;4.27;;;9.90;72.20;;;;;;4877370;29;20483;-78
2020/12/21 06:56:29;;;;;;;5.17;4.70;;;9.90;72.20;;;;;;4862339;29;20474;-78
2020/12/21 06:58:57;;;;;;;5.73;5.23;;;9.90;72.30;;;;;;4862999;29;20550;-78
2020/12/21 07:01:26;;;;;;;7.60;4.60;;;9.90;72.30;;;;;;4878401;29;20487;-80
2020/12/21 07:03:53;;;;;;;7.13;4.47;;;9.80;72.30;;;;;;4872532;29;20462;-79
2020/12/21 07:06:20;;;;;;;5.93;5.43;;;9.90;72.60;;;;;;4870485;29;20545;-80
2020/12/21 07:08:49;;;;;;;5.90;5.30;;;9.90;72.50;;;;;;4862130;29;20897;-79
2020/12/21 07:11:18;;;;;;;6.57;5.50;;;9.90;72.40;;;;;;4873381;29;20465;-79
2020/12/21 07:13:46;;;;;;;5.73;5.27;;;10.00;71.40;;;;;;4865292;29;20549;-80
2020/12/21 07:16:13;;;;;;;6.23;5.63;;;10.00;71.20;;;;;;4874732;29;20463;-79
2020/12/21 07:18:40;;;;;;;8.23;5.90;;;10.00;71.10;;;;;;4863141;29;20470;-79
2020/12/21 07:21:08;;;;;;;5.33;4.93;;;9.90;72.20;;;;;;4862631;29;20840;-79
2020/12/21 07:23:34;;;;;;;7.03;6.07;;;10.00;71.20;;;;;;4863414;29;21165;-79
2020/12/21 07:26:01;;;;;;;8.30;5.47;;;10.00;71.20;;;;;;4863538;29;20465;-80
2020/12/21 07:28:29;;;;;;;5.30;4.90;;;10.00;71.20;;;;;;4863254;29;20496;-79
2020/12/21 07:31:05;;;;;;;8.83;5.07;;;9.90;72.20;;;;;;4874169;29;20556;-78
2020/12/21 07:33:31;;;;;;;5.40;4.97;;;10.00;71.30;;;;;;4876421;29;20548;-77
2020/12/21 07:35:58;;;;;;;5.47;4.97;;;10.00;71.40;;;;;;4878308;29;20532;-75
2020/12/21 07:38:25;;;;;;;6.30;5.73;;;10.00;71.30;;;;;;4874007;29;20552;-76
2020/12/21 07:40:53;;;;;;;7.47;5.13;;;10.10;71.30;;;;;;4878840;29;20977;-76
2020/12/21 07:43:30;;;;;;;5.00;4.20;;;10.10;71.20;;;;;;4870876;29;20469;-76
2020/12/21 07:46:04;;;;;;;6.30;5.50;;;10.10;71.20;;;;;;4876379;29;20488;-76
2020/12/21 07:48:32;;;;;;;9.43;5.23;;;10.10;71.00;;;;;;4879844;29;20582;-75
2020/12/21 07:51:02;;;;;;;6.70;5.93;;;10.00;70.90;;;;;;4864906;29;20467;-75
2020/12/21 07:53:32;;;;;;;6.17;5.60;;;10.10;71.10;;;;;;4861124;29;20486;-76
2020/12/21 07:55:59;;;;;;;5.97;5.47;;;10.00;71.00;;;;;;4877794;29;20457;-76
2020/12/21 07:58:26;;;;;;;7.40;5.80;;;10.00;70.70;;;;;;4879067;29;20454;-76
2020/12/21 08:00:57;;;;;;;7.27;5.67;;;10.00;70.20;;;;;;4864469;29;20993;-76
2020/12/21 08:03:25;;;;;;;6.47;5.40;;;10.00;70.30;;;;;;4870956;29;20468;-76
2020/12/21 08:06:11;;;;;;;5.70;5.20;;;10.00;70.30;;;;;;4876387;29;20456;-78
2020/12/21 08:08:38;;;;;;;6.57;5.97;;;10.10;70.50;;;;;;4869245;29;20494;-76
2020/12/21 08:11:07;;;;;;;6.80;6.03;;;10.00;70.10;;;;;;4860607;29;20458;-76
2020/12/21 08:13:35;;;;;;;6.50;5.90;;;10.10;70.30;;;;;;4868318;29;20540;-78
2020/12/21 08:16:09;;;;;;;6.20;5.60;;;10.10;69.80;;;;;;4873678;29;20483;-76
2020/12/21 08:18:36;;;;;;;7.17;5.97;;;10.10;69.70;;;;;;4873599;29;20997;-76
2020/12/21 08:21:03;;;;;;;7.53;6.93;;;10.10;69.60;;;;;;4862756;29;20478;-75
2020/12/21 08:23:31;;;;;;;7.57;6.30;;;10.10;69.50;;;;;;4878185;29;20458;-77
2020/12/21 08:25:58;;;;;;;9.70;6.07;;;10.10;69.80;;;;;;4876566;29;20480;-76
2020/12/21 08:28:28;;;;;;;7.00;5.73;;;10.10;69.50;;;;;;4878567;29;20496;-76
2020/12/21 08:31:05;;;;;;;7.50;6.43;;;10.10;69.20;;;;;;4873745;29;20483;-76
2020/12/21 08:33:32;;;;;;;7.97;7.33;;;10.20;69.30;;;;;;4875911;29;20465;-76
2020/12/21 08:36:16;;;;;;;6.97;6.20;;;10.20;69.10;;;;;;4870516;29;20600;-76
2020/12/21 08:38:43;;;;;;;8.07;7.37;;;10.30;69.20;;;;;;4860070;29;20453;-77
2020/12/21 08:41:10;;;;;;;7.20;6.50;;;10.20;69.00;;;;;;4872534;29;20501;-76
2020/12/21 08:43:37;;;;;;;7.10;6.50;;;10.20;68.90;;;;;;4862345;29;20557;-76
2020/12/21 08:46:06;;;;;;;8.03;7.23;;;10.30;69.00;;;;;;4869183;29;20480;-76
2020/12/21 08:48:35;;;;;;;7.60;6.90;;;10.30;69.00;;;;;;4876116;29;20584;-76
2020/12/21 08:51:03;;;;;;;7.47;6.87;;;10.30;69.10;;;;;;4876217;29;20477;-76
2020/12/21 08:53:30;;;;;;;7.57;6.77;;;10.30;68.70;;;;;;4874388;29;20857;-76
2020/12/21 08:55:56;;;;;;;14.30;8.13;;;10.40;68.70;;;;;;4872084;29;20467;-76
2020/12/21 08:58:23;;;;;;;6.20;5.70;;;10.40;69.30;;;;;;4859563;29;20463;-76
2020/12/21 09:00:49;;;;;;;8.20;6.60;;;10.40;68.60;;;;;;4886614;29;20465;-76
2020/12/21 09:03:16;;;;;;;8.50;6.23;;;10.50;68.70;;;;;;4882235;29;20878;-77
2020/12/21 09:05:42;;;;;;;7.77;7.00;;;10.50;68.60;;;;;;4862650;29;20468;-76
2020/12/21 09:08:10;;;;;;;8.50;7.70;;;10.50;68.40;;;;;;4870317;29;20468;-75
2020/12/21 09:10:36;;;;;;;8.40;6.30;;;10.60;68.30;;;;;;4878025;29;20469;-76
2020/12/21 09:13:03;;;;;;;7.10;6.40;;;10.60;68.60;;;;;;4878638;29;20458;-76
2020/12/21 09:15:29;;;;;;;7.63;6.93;;;10.60;68.40;;;;;;4878622;29;20936;-77
2020/12/21 09:17:56;;;;;;;9.67;7.40;;;10.70;68.30;;;;;;4877963;29;20477;-77
2020/12/21 09:20:22;;;;;;;6.40;5.80;;;10.70;68.30;;;;;;4878665;29;20947;-76
2020/12/21 09:22:49;;;;;;;9.10;6.33;;;10.70;68.30;;;;;;4878739;29;20463;-76
2020/12/21 09:25:16;;;;;;;6.63;6.03;;;10.70;68.10;;;;;;4876338;29;20475;-76
2020/12/21 09:27:44;;;;;;;6.70;6.10;;;10.70;68.10;;;;;;4879976;29;20466;-77
2020/12/21 09:30:10;;;;;;;7.30;5.77;;;10.70;68.00;;;;;;4878594;29;20592;-76
2020/12/21 09:32:37;;;;;;;10.07;6.50;;;10.80;68.20;;;;;;4878651;29;20800;-76
2020/12/21 09:35:04;;;;;;;6.20;5.60;;;10.80;68.20;;;;;;4878627;29;20573;-76
2020/12/21 09:37:30;;;;;;;7.03;5.63;;;10.90;68.10;;;;;;4877769;29;20559;-76
2020/12/21 09:39:57;;;;;;;8.10;5.30;;;10.90;67.70;;;;;;4878667;29;20510;-76
2020/12/21 09:42:25;;;;;;;10.50;7.10;;;10.90;68.10;;;;;;4878513;29;20460;-76
2020/12/21 09:44:51;;;;;;;8.33;6.20;;;11.00;68.10;;;;;;4877865;29;20498;-76
2020/12/21 09:47:18;;;;;;;6.70;6.00;;;11.00;68.10;;;;;;4878356;29;20510;-76
2020/12/21 09:49:45;;;;;;;8.70;6.37;;;11.10;68.00;;;;;;4878321;29;20577;-77
2020/12/21 09:52:11;;;;;;;6.60;5.80;;;11.10;67.90;;;;;;4876493;29;20486;-76
2020/12/21 09:54:38;;;;;;;6.53;5.20;;;11.10;67.70;;;;;;4878185;29;20837;-76
2020/12/21 09:57:04;;;;;;;7.57;6.13;;;11.10;67.50;;;;;;4878392;29;20459;-76
2020/12/21 09:59:32;;;;;;;11.70;8.83;;;11.10;67.60;;;;;;4879650;29;20470;-75
2020/12/21 10:01:58;;;;;;;7.40;6.70;;;11.10;67.60;;;;;;4881808;29;20878;-75
2020/12/21 10:04:25;;;;;;;4.73;4.20;;;11.20;67.70;;;;;;4881773;29;20475;-76
2020/12/21 10:06:51;;;;;;;6.77;4.77;;;11.30;67.60;;;;;;4880716;29;20965;-76
2020/12/21 10:09:18;;;;;;;5.80;5.30;;;11.30;67.40;;;;;;4881723;29;20502;-76
2020/12/21 10:11:45;;;;;;;6.93;5.50;;;11.30;67.10;;;;;;4880815;29;20960;-75
2020/12/21 10:14:12;;;;;;;11.03;6.70;;;11.40;67.20;;;;;;4881637;29;20459;-76
2020/12/21 10:16:39;;;;;;;8.27;7.03;;;11.40;66.70;;;;;;4881377;29;20467;-76
2020/12/21 10:19:06;;;;;;;12.37;7.67;;;11.40;66.50;;;;;;4879180;29;20979;-75
2020/12/21 10:21:32;;;;;;;7.13;6.37;;;11.40;66.70;;;;;;4881726;29;20490;-76
2020/12/21 10:23:59;;;;;;;13.40;7.10;;;11.50;66.50;;;;;;4880747;29;20996;-77
2020/12/21 10:26:25;;;;;;;5.93;4.67;;;11.50;66.10;;;;;;4881454;29;20491;-77
2020/12/21 10:28:52;;;;;;;5.93;5.43;;;11.60;66.10;;;;;;4880418;29;20499;-77
2020/12/21 10:31:18;;;;;;;6.00;4.40;;;11.60;65.90;;;;;;4881626;29;20520;-75
2020/12/21 10:33:46;;;;;;;6.23;4.73;;;11.60;65.70;;;;;;4880626;29;20478;-76
2020/12/21 10:36:16;;;;;;;6.10;4.40;;;11.60;65.50;;;;;;4881180;29;20466;-76
2020/12/21 10:38:42;;;;;;;5.80;4.67;;;11.60;65.40;;;;;;4880553;29;20480;-76
2020/12/21 10:41:09;;;;;;;5.10;4.60;;;11.50;66.20;;;;;;4880894;29;20516;-76
2020/12/21 10:43:35;;;;;;;5.10;4.60;;;11.60;65.80;;;;;;4879391;29;20973;-76
2020/12/21 10:46:02;;;;;;;4.97;4.50;;;11.60;65.90;;;;;;4880172;29;20531;-76
2020/12/21 10:48:28;;;;;;;4.90;4.50;;;11.60;66.10;;;;;;4880786;29;20515;-76
2020/12/21 10:50:56;;;;;;;9.30;4.80;;;11.60;66.10;;;;;;4879947;29;21025;-75
2020/12/21 10:53:23;;;;;;;4.70;4.20;;;11.70;66.00;;;;;;4880714;29;20526;-76
2020/12/21 10:55:49;;;;;;;4.13;3.63;;;11.70;66.00;;;;;;4880845;29;20574;-76
2020/12/21 10:58:16;;;;;;;5.83;4.20;;;11.70;65.90;;;;;;4880946;29;20804;-76
2020/12/21 11:00:42;;;;;;;4.03;3.60;;;11.70;65.50;;;;;;4880033;29;20858;-77
2020/12/21 11:03:09;;;;;;;4.10;3.80;;;11.70;66.30;;;;;;4880846;29;20466;-77
2020/12/21 11:05:35;;;;;;;3.93;3.63;;;11.70;65.10;;;;;;4880169;29;20957;-76
2020/12/21 11:08:03;;;;;;;6.37;3.90;;;11.60;65.20;;;;;;4880508;29;20519;-75
2020/12/21 11:10:30;;;;;;;6.10;4.00;;;11.60;65.00;;;;;;4878029;29;20496;-75
2020/12/21 11:12:57;;;;;;;4.03;3.50;;;11.70;65.30;;;;;;4880437;29;20531;-75
2020/12/21 11:15:23;;;;;;;5.47;3.63;;;11.70;65.40;;;;;;4880591;29;20960;-75
2020/12/21 11:17:50;;;;;;;7.17;3.87;;;11.70;65.20;;;;;;4880590;29;20966;-76
2020/12/21 11:20:16;;;;;;;4.63;3.67;;;11.80;65.30;;;;;;4880439;29;20528;-76
2020/12/21 11:22:44;;;;;;;4.20;3.77;;;11.80;65.20;;;;;;4880207;29;20467;-75
2020/12/21 11:25:11;;;;;;;4.77;4.37;;;11.80;65.10;;;;;;4880785;29;20811;-75
2020/12/21 11:27:38;;;;;;;6.57;4.80;;;11.90;65.10;;;;;;4880825;29;20459;-76
2020/12/21 11:30:05;;;;;;;5.70;3.90;;;11.90;64.80;;;;;;4880264;29;20506;-76
2020/12/21 11:32:31;;;;;;;7.53;4.53;;;11.90;64.80;;;;;;4880455;29;20459;-76
2020/12/21 11:34:58;;;;;;;4.97;3.47;;;12.00;64.90;;;;;;4880190;29;20830;-76
2020/12/21 11:37:28;;;;;;;6.40;3.80;;;12.00;64.70;;;;;;4878009;29;20876;-76
2020/12/21 11:39:55;;;;;;;5.93;4.37;;;12.10;64.70;;;;;;4880324;29;20524;-75
2020/12/21 11:42:22;;;;;;;5.23;3.13;;;12.10;64.70;;;;;;4880133;29;20494;-76
2020/12/21 11:44:48;;;;;;;3.87;3.57;;;12.10;64.90;;;;;;4880116;29;20981;-76
2020/12/21 11:47:15;;;;;;;4.83;4.43;;;12.20;65.10;;;;;;4880137;29;20460;-76
2020/12/21 11:49:42;;;;;;;4.53;4.10;;;12.20;64.90;;;;;;4878985;29;20549;-76
2020/12/21 11:52:09;;;;;;;5.20;4.20;;;12.20;64.70;;;;;;4880030;29;20520;-76
2020/12/21 11:54:35;;;;;;;4.33;3.90;;;12.20;64.50;;;;;;4878485;29;20654;-76
2020/12/21 11:57:02;;;;;;;4.43;4.03;;;12.20;64.80;;;;;;4860988;29;20464;-76
2020/12/21 11:59:29;;;;;;;5.00;4.20;;;12.20;64.60;;;;;;4878728;29;20843;-75
2020/12/21 12:01:58;;;;;;;5.30;4.00;;;12.20;64.70;;;;;;4875828;29;20516;-75
2020/12/21 12:04:24;;;;;;;3.80;3.50;;;12.30;65.00;;;;;;4872407;29;20454;-75
2020/12/21 12:06:52;;;;;;;4.10;3.80;;;12.30;65.20;;;;;;4861054;29;20461;-75
2020/12/21 12:09:19;;;;;;;4.80;3.47;;;12.40;65.40;;;;;;4865730;29;20496;-75
2020/12/21 12:11:46;;;;;;;4.10;3.80;;;12.50;65.30;;;;;;4876023;29;20464;-75
2020/12/21 12:14:13;;;;;;;4.23;3.70;;;12.60;65.00;;;;;;4865232;29;20461;-74
2020/12/21 12:16:40;;;;;;;3.80;3.40;;;12.60;64.90;;;;;;4874044;29;20475;-74
2020/12/21 12:19:06;;;;;;;2.73;2.57;;;12.60;65.00;;;;;;4874966;29;20466;-75
2020/12/21 12:21:33;;;;;;;3.53;2.90;;;12.60;64.80;;;;;;4879010;29;20460;-75
2020/12/21 12:23:59;;;;;;;2.97;2.77;;;12.60;64.80;;;;;;4874304;29;20975;-75
2020/12/21 12:26:26;;;;;;;3.73;3.07;;;12.60;65.00;;;;;;4860853;29;20461;-75
2020/12/21 12:28:54;;;;;;;2.93;2.63;;;12.50;65.30;;;;;;4861890;29;20483;-76
2020/12/21 12:31:21;;;;;;;3.40;3.17;;;12.50;65.70;;;;;;4876076;29;20471;-76
2020/12/21 12:33:50;;;;;;;3.17;2.93;;;12.50;66.00;;;;;;4878577;29;20557;-76
2020/12/21 12:36:17;;;;;;;3.70;3.40;;;12.60;66.30;;;;;;4879332;29;20456;-76
2020/12/21 12:38:44;;;;;;;3.60;3.30;;;12.60;66.30;;;;;;4865781;29;20469;-76
2020/12/21 12:41:11;;;;;;;4.03;3.63;;;12.70;66.40;;;;;;4877879;29;20488;-76
2020/12/21 12:43:37;;;;;;;3.53;3.23;;;12.70;66.60;;;;;;4873264;29;20456;-76
2020/12/21 12:46:04;;;;;;;3.43;3.13;;;12.80;66.60;;;;;;4877173;29;20525;-75
2020/12/21 12:48:31;;;;;;;3.07;2.87;;;12.90;66.70;;;;;;4879009;29;20464;-75